Hovedside
METAR-TAF:

METAR-TAF

Lufthavner :

Tenerife, Spania

breddegrad: 28-28N, lengdegrad: 016-19W, høyde over havet: 632 m

Gjeldene værobservasjon

Denne rapporten ble laget for 38 minutter siden, klokken 20:30 UTC
Vind 6 kt fra Vest
Temperatur 25°C
Luftfuktighet 21%
Trykk 1020 hPa
Sikt 10 km eller mer
ingen skyer under 1500 m og ingen bygeskyer

METAR: GCXO 122030Z 27006KT CAVOK 25/01 Q1020 NOSIG

Tid: 22:08 (21:08 UTC)

Varsel

Denne rapporten ble laget for 1 time og 8 minutter siden, klokken 20:00 UTC
Varsel gyldig fra 12. klokken 21 UTC til 13. klokken 21 UTC
Vind 6 kt fra Vest-nordvest
Sikt: 9000 m

TAF: GCXO 122000Z 1221/1321 30006KT 9000 NSC TX28/1314Z TN16/1306Z

Værobservasjoner og værvarsel for over 4000 flyplasser (METAR- og TAF-rapporter).

Tilgjengelige stasjoner er representert av de røde og gule prikkene på kartet.

Hold musepekeren over prikken for å se navnet på stasjonen.

Klikk så for å se værobservasjoner og -varsler.

For å forandre kartet kan du klikke på den grønne knappen med svart kryss for å zoome inn, på den grønne knappen med strek for å zoome ut, eller på de grønne pilene for å se tilstøtende kart.


METAR-TAF: